createdAt,value
2022-08-26T00:02:26.831Z,22.19
2022-08-26T00:04:56.758Z,22.14
2022-08-26T00:07:26.504Z,22.15
2022-08-26T00:09:56.328Z,22.05
2022-08-26T00:12:34.362Z,21.85
2022-08-26T00:15:06.350Z,21.93
2022-08-26T00:17:40.355Z,21.93
2022-08-26T00:20:14.168Z,21.99
2022-08-26T00:22:44.128Z,21.98
2022-08-26T00:25:14.987Z,21.85
2022-08-26T00:27:47.630Z,21.93
2022-08-26T00:30:22.910Z,21.85
2022-08-26T00:32:56.934Z,21.82
2022-08-26T00:35:28.222Z,21.82
2022-08-26T00:37:58.406Z,21.78
2022-08-26T00:40:33.622Z,21.68
2022-08-26T00:43:07.010Z,21.78
2022-08-26T00:45:45.086Z,21.70
2022-08-26T00:48:21.571Z,21.58
2022-08-26T00:50:55.958Z,21.58
2022-08-26T00:53:28.736Z,21.58
2022-08-26T00:56:03.697Z,21.59
2022-08-26T00:58:35.863Z,21.48
2022-08-26T01:01:05.789Z,21.48
2022-08-26T01:03:39.881Z,21.43
2022-08-26T01:06:13.017Z,21.33
2022-08-26T01:08:43.656Z,21.46
2022-08-26T01:11:15.317Z,21.41
2022-08-26T01:13:46.612Z,21.33
2022-08-26T01:16:18.837Z,21.35
2022-08-26T01:18:52.450Z,21.21
2022-08-26T01:21:31.647Z,21.21
2022-08-26T01:24:03.938Z,21.09
2022-08-26T01:26:36.739Z,21.20
2022-08-26T01:29:08.797Z,21.11
2022-08-26T01:31:42.125Z,21.11
2022-08-26T01:34:18.549Z,21.12
2022-08-26T01:36:51.661Z,21.11
2022-08-26T01:39:24.386Z,20.90
2022-08-26T01:42:02.964Z,20.71
2022-08-26T01:44:39.085Z,20.81
2022-08-26T01:47:11.848Z,20.73
2022-08-26T01:49:42.464Z,20.88
2022-08-26T01:52:15.131Z,20.92
2022-08-26T01:54:50.517Z,20.99
2022-08-26T01:57:23.147Z,20.88
2022-08-26T01:59:54.551Z,20.82
2022-08-26T02:02:26.127Z,20.69
2022-08-26T02:05:00.098Z,20.73
2022-08-26T02:07:30.898Z,20.69
2022-08-26T02:10:06.802Z,20.78
2022-08-26T02:12:37.239Z,20.79
2022-08-26T02:15:09.922Z,20.76
2022-08-26T02:17:45.027Z,20.74
2022-08-26T02:20:16.018Z,20.67
2022-08-26T02:22:46.169Z,20.67
2022-08-26T02:25:24.108Z,20.61
2022-08-26T02:27:56.756Z,20.74
2022-08-26T02:30:29.966Z,20.70
2022-08-26T02:33:04.001Z,20.62
2022-08-26T02:35:35.108Z,20.43
2022-08-26T02:38:09.998Z,20.64
2022-08-26T02:40:44.175Z,20.59
2022-08-26T02:43:14.073Z,20.62
2022-08-26T02:45:44.267Z,20.59
2022-08-26T02:48:18.879Z,20.59
2022-08-26T02:50:48.739Z,20.48
2022-08-26T02:53:25.024Z,20.44
2022-08-26T02:55:58.324Z,20.51
2022-08-26T02:58:29.605Z,20.35
2022-08-26T03:00:59.652Z,20.42
2022-08-26T03:03:32.119Z,20.39
2022-08-26T03:06:02.381Z,20.40
2022-08-26T03:08:32.110Z,20.35
2022-08-26T03:11:04.388Z,20.28
2022-08-26T03:13:34.630Z,20.26
2022-08-26T03:16:05.101Z,20.29
2022-08-26T03:18:35.137Z,20.16
2022-08-26T03:21:08.390Z,20.18
2022-08-26T03:23:38.595Z,20.16
2022-08-26T03:26:12.755Z,20.12
2022-08-26T03:29:02.769Z,19.91
2022-08-26T03:31:30.494Z,19.67
2022-08-26T03:34:00.617Z,19.60
2022-08-26T03:36:30.472Z,19.73
2022-08-26T03:39:00.425Z,19.84
2022-08-26T03:41:32.970Z,19.90
2022-08-26T03:44:02.623Z,20.08
2022-08-26T03:46:35.106Z,19.89
2022-08-26T03:49:07.348Z,19.93
2022-08-26T03:51:38.751Z,19.93
2022-08-26T03:54:09.864Z,19.96
2022-08-26T03:56:42.181Z,19.93
2022-08-26T03:59:11.988Z,19.97
2022-08-26T04:01:41.970Z,20.00
2022-08-26T04:04:15.573Z,19.89
2022-08-26T04:06:46.547Z,19.91
2022-08-26T04:09:18.163Z,19.91
2022-08-26T04:11:51.225Z,19.95
2022-08-26T04:14:23.847Z,20.01
2022-08-26T04:16:55.250Z,19.84
2022-08-26T04:19:26.122Z,19.80
2022-08-26T04:21:56.308Z,19.74
2022-08-26T04:24:29.559Z,19.76
2022-08-26T04:27:02.232Z,19.66
2022-08-26T04:29:32.599Z,19.63
2022-08-26T04:32:03.226Z,19.61
2022-08-26T04:34:33.554Z,19.67
2022-08-26T04:37:03.702Z,19.72
2022-08-26T04:39:36.269Z,19.72
2022-08-26T04:42:09.396Z,19.74
2022-08-26T04:44:39.851Z,19.71
2022-08-26T04:47:09.709Z,19.75
2022-08-26T04:49:41.104Z,19.81
2022-08-26T04:52:12.025Z,19.80
2022-08-26T04:54:42.332Z,19.83
2022-08-26T04:57:14.973Z,19.82
2022-08-26T04:59:45.330Z,19.85
2022-08-26T05:02:16.342Z,19.93
2022-08-26T05:04:46.023Z,20.01
2022-08-26T05:07:15.728Z,20.06
2022-08-26T05:09:47.409Z,19.97
2022-08-26T05:12:19.656Z,19.83
2022-08-26T05:14:49.379Z,19.74
2022-08-26T05:17:19.012Z,19.79
2022-08-26T05:19:48.758Z,19.61
2022-08-26T05:22:20.241Z,19.64
2022-08-26T05:24:50.160Z,19.83
2022-08-26T05:27:22.366Z,19.94
2022-08-26T05:29:54.506Z,19.89
2022-08-26T05:32:24.479Z,20.00
2022-08-26T05:34:57.224Z,20.02
2022-08-26T05:37:28.413Z,19.94
2022-08-26T05:39:58.199Z,19.70
2022-08-26T05:42:31.095Z,19.85
2022-08-26T05:45:00.847Z,19.97
2022-08-26T05:47:31.200Z,20.10
2022-08-26T05:50:05.331Z,20.09
2022-08-26T05:52:35.372Z,20.30
2022-08-26T05:55:05.638Z,20.37
2022-08-26T05:57:42.794Z,20.44
2022-08-26T06:00:15.565Z,20.51
2022-08-26T06:02:45.255Z,20.48
2022-08-26T06:05:18.302Z,20.50
2022-08-26T06:08:00.476Z,20.62
2022-08-26T06:10:32.739Z,20.66
2022-08-26T06:13:05.721Z,20.67
2022-08-26T06:15:44.254Z,20.66
2022-08-26T06:18:15.240Z,20.74
2022-08-26T06:20:56.869Z,20.82
2022-08-26T06:23:40.504Z,20.91
2022-08-26T06:26:13.366Z,20.86
2022-08-26T06:28:46.641Z,20.95
2022-08-26T06:31:17.661Z,21.04
2022-08-26T06:33:48.178Z,21.06
2022-08-26T06:36:23.203Z,21.14
2022-08-26T06:38:54.750Z,21.27
2022-08-26T06:41:26.007Z,21.47
2022-08-26T06:43:59.747Z,21.60
2022-08-26T06:46:30.492Z,21.91
2022-08-26T06:49:01.032Z,22.23
2022-08-26T06:51:33.291Z,22.40
2022-08-26T06:54:06.416Z,22.56
2022-08-26T06:56:39.024Z,22.57
2022-08-26T06:59:13.153Z,22.98
2022-08-26T07:01:47.211Z,23.20
2022-08-26T07:04:22.448Z,23.26
2022-08-26T07:06:54.175Z,23.66
2022-08-26T07:09:25.106Z,23.83
2022-08-26T07:11:56.609Z,23.90
2022-08-26T07:14:28.993Z,23.87
2022-08-26T07:17:02.079Z,24.21
2022-08-26T07:19:33.558Z,24.52
2022-08-26T07:22:04.831Z,24.61
2022-08-26T07:24:36.448Z,24.70
2022-08-26T07:27:08.992Z,25.06
2022-08-26T07:29:42.501Z,25.12
2022-08-26T07:32:13.520Z,25.33
2022-08-26T07:34:44.719Z,25.35
2022-08-26T07:37:14.742Z,25.74
2022-08-26T07:39:45.390Z,26.16
2022-08-26T07:42:18.465Z,26.47
2022-08-26T07:44:51.361Z,26.51
2022-08-26T07:47:25.872Z,26.65
2022-08-26T07:49:57.526Z,26.53
2022-08-26T07:52:28.526Z,26.35
2022-08-26T07:54:59.619Z,26.35
2022-08-26T07:57:30.798Z,26.35
2022-08-26T08:00:03.476Z,26.23
2022-08-26T08:02:33.493Z,26.31
2022-08-26T08:05:04.772Z,26.69
2022-08-26T08:07:44.161Z,26.96
2022-08-26T08:10:17.977Z,27.22
2022-08-26T08:12:48.585Z,27.48
2022-08-26T08:15:21.916Z,27.64
2022-08-26T08:17:52.078Z,27.77
2022-08-26T08:20:23.010Z,27.88
2022-08-26T08:22:53.893Z,28.15
2022-08-26T08:25:24.429Z,28.06
2022-08-26T08:27:54.445Z,28.31
2022-08-26T08:30:27.727Z,28.52
2022-08-26T08:32:58.410Z,28.37
2022-08-26T08:35:28.538Z,28.55
2022-08-26T08:37:59.659Z,28.50
2022-08-26T08:40:31.410Z,28.62
2022-08-26T08:43:05.586Z,28.63
2022-08-26T08:45:42.163Z,28.70
2022-08-26T08:48:21.082Z,28.41
2022-08-26T08:51:05.156Z,28.54
2022-08-26T08:53:38.117Z,28.57
2022-08-26T08:56:20.758Z,28.51
2022-08-26T08:58:57.505Z,28.66
2022-08-26T09:01:39.676Z,28.79
2022-08-26T09:04:32.152Z,29.10
2022-08-26T09:07:04.849Z,29.41
2022-08-26T09:09:40.540Z,29.57
2022-08-26T09:12:14.375Z,29.53
2022-08-26T09:14:52.595Z,29.71
2022-08-26T09:17:35.982Z,29.68
2022-08-26T09:20:15.926Z,29.69
2022-08-26T09:22:45.714Z,29.81
2022-08-26T09:25:18.640Z,29.93
2022-08-26T09:27:50.734Z,29.85
2022-08-26T09:30:33.150Z,29.78
2022-08-26T09:33:10.454Z,29.90
2022-08-26T09:35:43.924Z,30.15
2022-08-26T09:38:26.736Z,30.02
2022-08-26T09:41:00.760Z,30.38
2022-08-26T09:43:31.427Z,30.29
2022-08-26T09:46:16.718Z,30.57
2022-08-26T09:48:51.625Z,30.55
2022-08-26T09:51:33.669Z,30.59
2022-08-26T09:54:08.259Z,30.62
2022-08-26T09:56:40.325Z,30.68
2022-08-26T09:59:12.834Z,30.63
2022-08-26T10:01:44.907Z,30.79
2022-08-26T10:04:24.772Z,31.03
2022-08-26T10:07:01.141Z,30.91
2022-08-26T10:09:33.230Z,30.96
2022-08-26T10:12:07.597Z,31.10
2022-08-26T10:17:20.316Z,31.45
2022-08-26T10:19:58.788Z,31.59
2022-08-26T10:22:35.988Z,31.43
2022-08-26T10:25:12.155Z,30.98
2022-08-26T10:27:53.640Z,30.52
2022-08-26T10:30:26.949Z,30.19
2022-08-26T10:33:00.904Z,29.96
2022-08-26T10:35:35.166Z,29.71
2022-08-26T10:38:12.007Z,29.37
2022-08-26T10:40:52.903Z,29.33
2022-08-26T10:43:27.349Z,29.19
2022-08-26T10:46:02.121Z,28.88
2022-08-26T10:48:43.557Z,28.30
2022-08-26T10:51:18.079Z,28.05
2022-08-26T10:53:56.149Z,27.90
2022-08-26T10:56:38.100Z,27.61
2022-08-26T10:59:16.138Z,27.57
2022-08-26T11:01:52.532Z,27.62
2022-08-26T11:04:34.858Z,27.77
2022-08-26T11:07:36.261Z,27.79
2022-08-26T11:10:09.624Z,27.42
2022-08-26T11:13:00.901Z,27.44
2022-08-26T11:16:09.538Z,27.76
2022-08-26T11:18:54.738Z,28.13
2022-08-26T11:21:57.058Z,28.50
2022-08-26T11:24:46.772Z,28.82
2022-08-26T11:27:46.585Z,29.08
2022-08-26T11:30:57.684Z,29.32
2022-08-26T11:33:52.269Z,28.76
2022-08-26T11:37:00.678Z,28.17
2022-08-26T11:39:38.636Z,27.80
2022-08-26T11:42:29.599Z,27.59
2022-08-26T11:45:05.324Z,27.52
2022-08-26T11:47:35.685Z,27.50
2022-08-26T11:50:11.181Z,27.33
2022-08-26T11:52:40.949Z,27.24
2022-08-26T11:55:14.522Z,27.09
2022-08-26T11:57:50.348Z,26.96
2022-08-26T12:00:25.615Z,26.91
2022-08-26T12:02:56.602Z,26.92
2022-08-26T12:05:31.884Z,26.96
2022-08-26T12:08:07.070Z,26.77
2022-08-26T12:10:38.472Z,26.84
2022-08-26T12:13:22.371Z,26.81
2022-08-26T12:15:56.491Z,26.83
2022-08-26T12:18:28.663Z,26.74
2022-08-26T12:21:01.719Z,26.80
2022-08-26T12:23:44.044Z,26.81
2022-08-26T12:26:22.586Z,26.70
2022-08-26T12:28:59.405Z,26.70
2022-08-26T12:31:32.674Z,26.73
2022-08-26T12:34:05.191Z,26.95
2022-08-26T12:36:39.377Z,27.16
2022-08-26T12:39:11.838Z,27.28
2022-08-26T12:41:44.427Z,27.49
2022-08-26T12:44:53.419Z,27.73
2022-08-26T12:47:35.207Z,28.11
2022-08-26T12:50:19.307Z,28.46
2022-08-26T12:52:59.721Z,28.50
2022-08-26T12:55:39.194Z,28.59
2022-08-26T12:58:23.926Z,28.56
2022-08-26T13:00:57.677Z,28.41
2022-08-26T13:03:34.488Z,28.57
2022-08-26T13:06:19.339Z,28.75
2022-08-26T13:08:51.562Z,29.11
2022-08-26T13:11:24.443Z,29.20
2022-08-26T13:13:56.845Z,29.35
2022-08-26T13:16:29.362Z,29.33
2022-08-26T13:19:01.958Z,29.45
2022-08-26T13:21:37.779Z,29.62
2022-08-26T13:24:11.886Z,29.56
2022-08-26T13:26:42.862Z,29.72
2022-08-26T13:29:13.898Z,29.80
2022-08-26T13:31:46.915Z,29.65
2022-08-26T13:34:21.003Z,29.28
2022-08-26T13:36:52.058Z,29.43
2022-08-26T13:39:22.164Z,29.40
2022-08-26T13:41:52.170Z,29.51
2022-08-26T13:44:22.024Z,29.63
2022-08-26T13:46:54.787Z,29.55
2022-08-26T13:49:24.693Z,29.50
2022-08-26T13:51:54.286Z,29.63
2022-08-26T13:54:24.016Z,29.59
2022-08-26T13:56:53.698Z,29.66
2022-08-26T13:59:24.496Z,29.63
2022-08-26T14:01:58.552Z,29.58
2022-08-26T14:04:28.374Z,29.42
2022-08-26T14:06:58.215Z,29.43
2022-08-26T14:09:27.987Z,29.59
2022-08-26T14:11:58.988Z,29.57
2022-08-26T14:14:30.927Z,29.37
2022-08-26T14:17:04.282Z,29.47
2022-08-26T14:19:34.934Z,29.50
2022-08-26T14:22:04.720Z,29.48
2022-08-26T14:24:34.417Z,29.51
2022-08-26T14:27:04.142Z,29.40
2022-08-26T14:29:33.908Z,29.22
2022-08-26T14:32:11.634Z,28.95
2022-08-26T14:34:42.944Z,28.74
2022-08-26T14:37:15.385Z,28.63
2022-08-26T14:39:45.311Z,28.48
2022-08-26T14:42:16.985Z,28.33
2022-08-26T14:44:48.866Z,28.28
2022-08-26T14:47:21.246Z,28.20
2022-08-26T14:49:50.988Z,28.08
2022-08-26T14:52:21.527Z,28.02
2022-08-26T14:54:48.630Z,27.94
2022-08-26T14:57:24.667Z,27.80
2022-08-26T14:59:54.412Z,27.75
2022-08-26T15:02:33.094Z,27.63
2022-08-26T15:05:04.210Z,27.59
2022-08-26T15:07:33.920Z,27.59
2022-08-26T15:10:03.988Z,27.49
2022-08-26T15:12:33.662Z,27.42
2022-08-26T15:15:03.389Z,27.39
2022-08-26T15:17:35.888Z,27.37
2022-08-26T15:20:06.910Z,27.38
2022-08-26T15:22:36.725Z,27.29
2022-08-26T15:25:08.359Z,27.24
2022-08-26T15:27:38.082Z,27.22
2022-08-26T15:30:10.805Z,27.18
2022-08-26T15:32:43.074Z,27.23
2022-08-26T15:35:15.703Z,27.24
2022-08-26T15:37:45.629Z,27.19
2022-08-26T15:40:15.662Z,27.24
2022-08-26T15:42:45.561Z,27.24
2022-08-26T15:45:26.233Z,27.15
2022-08-26T15:48:01.365Z,27.11
2022-08-26T15:50:52.119Z,27.16
2022-08-26T15:53:22.109Z,27.09
2022-08-26T15:55:51.841Z,27.24
2022-08-26T15:58:22.155Z,27.18
2022-08-26T16:00:51.871Z,27.06
2022-08-26T16:03:24.680Z,26.95
2022-08-26T16:05:54.713Z,26.87
2022-08-26T16:08:24.428Z,26.88
2022-08-26T16:10:54.174Z,26.79
2022-08-26T16:13:23.925Z,26.74
2022-08-26T16:15:53.792Z,26.56
2022-08-26T16:18:26.192Z,26.29
2022-08-26T16:21:13.162Z,25.90
2022-08-26T16:23:45.305Z,25.47
2022-08-26T16:26:17.499Z,25.40
2022-08-26T16:28:47.508Z,25.25
2022-08-26T16:31:18.337Z,25.11
2022-08-26T16:33:51.501Z,24.90
2022-08-26T16:36:21.426Z,24.79
2022-08-26T16:38:56.335Z,24.57
2022-08-26T16:41:27.466Z,24.22
2022-08-26T16:43:57.301Z,24.12
2022-08-26T16:46:28.437Z,23.92
2022-08-26T16:49:03.944Z,24.04
2022-08-26T16:51:37.856Z,23.77
2022-08-26T16:54:09.294Z,23.67
2022-08-26T16:56:39.842Z,23.61
2022-08-26T16:59:12.398Z,23.66
2022-08-26T17:01:42.117Z,23.60
2022-08-26T17:04:14.589Z,23.45
2022-08-26T17:06:44.342Z,23.36
2022-08-26T17:09:14.038Z,23.09
2022-08-26T17:11:43.752Z,23.18
2022-08-26T17:14:13.582Z,23.09
2022-08-26T17:16:43.324Z,23.15
2022-08-26T17:19:15.798Z,23.15
2022-08-26T17:21:45.474Z,23.13
2022-08-26T17:24:15.857Z,23.07
2022-08-26T17:26:48.440Z,23.02
2022-08-26T17:29:22.264Z,23.10
2022-08-26T17:31:51.939Z,23.20
2022-08-26T17:34:25.255Z,23.22
2022-08-26T17:36:55.197Z,23.24
2022-08-26T17:39:24.844Z,23.18
2022-08-26T17:41:54.635Z,23.15
2022-08-26T17:44:24.582Z,23.13
2022-08-26T17:46:54.942Z,23.11
2022-08-26T17:49:27.558Z,23.01
2022-08-26T17:51:59.780Z,22.95
2022-08-26T17:54:30.150Z,22.98
2022-08-26T17:57:01.501Z,23.16
2022-08-26T17:59:31.287Z,23.21
2022-08-26T18:02:01.502Z,23.20
2022-08-26T18:04:34.771Z,23.06
2022-08-26T18:07:04.510Z,22.81
2022-08-26T18:09:34.600Z,22.73
2022-08-26T18:12:04.537Z,22.80
2022-08-26T18:14:35.475Z,22.83
2022-08-26T18:17:05.674Z,22.90
2022-08-26T18:19:38.070Z,22.73
2022-08-26T18:22:08.014Z,22.67
2022-08-26T18:24:37.779Z,22.49
2022-08-26T18:27:08.068Z,22.28
2022-08-26T18:29:37.950Z,21.97
2022-08-26T18:32:15.319Z,21.92
2022-08-26T18:34:47.644Z,21.83
2022-08-26T18:37:17.360Z,22.02
2022-08-26T18:39:47.068Z,22.11
2022-08-26T18:42:17.066Z,22.17
2022-08-26T18:44:47.201Z,22.13
2022-08-26T18:47:16.950Z,21.90
2022-08-26T18:49:49.234Z,21.96
2022-08-26T18:52:18.968Z,22.10
2022-08-26T18:54:48.677Z,22.11
2022-08-26T18:57:18.463Z,22.11
2022-08-26T18:59:48.244Z,22.18
2022-08-26T19:02:18.069Z,22.32
2022-08-26T19:04:51.962Z,22.26
2022-08-26T19:07:22.544Z,22.34
2022-08-26T19:09:54.038Z,22.30
2022-08-26T19:12:24.078Z,22.22
2022-08-26T19:14:56.720Z,22.30
2022-08-26T19:17:26.960Z,22.10
2022-08-26T19:19:59.297Z,22.16
2022-08-26T19:22:28.977Z,22.08
2022-08-26T19:24:58.729Z,22.15
2022-08-26T19:27:28.384Z,22.14
2022-08-26T19:29:59.194Z,22.09
2022-08-26T19:32:28.916Z,21.91
2022-08-26T19:35:01.289Z,21.68
2022-08-26T19:37:30.933Z,21.56
2022-08-26T19:40:00.611Z,21.63
2022-08-26T19:42:30.391Z,21.72
2022-08-26T19:45:24.637Z,21.83
2022-08-26T19:47:55.765Z,21.83
2022-08-26T19:50:29.351Z,21.87
2022-08-26T19:52:59.064Z,21.81
2022-08-26T19:55:29.033Z,21.70
2022-08-26T19:57:58.727Z,21.81
2022-08-26T20:00:31.944Z,21.89
2022-08-26T20:03:02.329Z,21.85
2022-08-26T20:05:34.713Z,21.87
2022-08-26T20:08:05.430Z,21.87
2022-08-26T20:10:35.994Z,21.97
2022-08-26T20:13:05.707Z,21.91
2022-08-26T20:15:38.561Z,22.02
2022-08-26T20:18:29.028Z,21.97
2022-08-26T20:21:13.849Z,22.01
2022-08-26T20:23:43.882Z,21.97
2022-08-26T20:26:13.603Z,21.84
2022-08-26T20:28:43.322Z,21.71
2022-08-26T20:31:13.426Z,21.58
2022-08-26T20:33:46.104Z,21.45
2022-08-26T20:36:20.343Z,21.46
2022-08-26T20:38:50.189Z,21.36
2022-08-26T20:41:20.514Z,21.39
2022-08-26T20:43:50.242Z,21.32
2022-08-26T20:46:24.109Z,21.35
2022-08-26T20:48:54.983Z,21.21
2022-08-26T20:51:31.195Z,21.05
2022-08-26T20:54:01.439Z,21.27
2022-08-26T20:56:31.075Z,21.34
2022-08-26T20:59:03.153Z,21.38
2022-08-26T21:01:35.140Z,21.28
2022-08-26T21:04:06.769Z,21.08
2022-08-26T21:06:39.627Z,21.17
2022-08-26T21:09:14.177Z,21.24
2022-08-26T21:11:47.322Z,21.30
2022-08-26T21:14:17.794Z,21.29
2022-08-26T21:16:48.711Z,21.24
2022-08-26T21:19:20.809Z,21.17
2022-08-26T21:21:53.289Z,21.11
2022-08-26T21:24:23.175Z,20.99
2022-08-26T21:26:52.830Z,21.08
2022-08-26T21:29:22.626Z,20.97
2022-08-26T21:31:52.575Z,20.72
2022-08-26T21:34:22.460Z,20.89
2022-08-26T21:36:54.685Z,20.88
2022-08-26T21:39:24.501Z,20.93
2022-08-26T21:41:54.159Z,20.95
2022-08-26T21:44:23.834Z,20.93
2022-08-26T21:46:55.942Z,20.95
2022-08-26T21:49:26.189Z,20.98
2022-08-26T21:51:58.521Z,21.02
2022-08-26T21:54:28.310Z,20.80
2022-08-26T21:56:58.071Z,20.82
2022-08-26T21:59:27.909Z,20.92
2022-08-26T22:04:27.788Z,20.94
2022-08-26T22:07:00.452Z,20.92
2022-08-26T22:09:31.913Z,20.81
2022-08-26T22:12:02.420Z,20.76
2022-08-26T22:14:32.248Z,20.82
2022-08-26T22:17:02.739Z,20.81
2022-08-26T22:19:32.714Z,20.81
2022-08-26T22:22:06.723Z,20.84
2022-08-26T22:24:36.471Z,20.61
2022-08-26T22:27:06.950Z,20.81
2022-08-26T22:29:38.002Z,20.81
2022-08-26T22:32:08.221Z,20.75
2022-08-26T22:34:38.062Z,20.68
2022-08-26T22:37:10.585Z,20.73
2022-08-26T22:39:41.086Z,20.79
2022-08-26T22:42:10.827Z,20.77
2022-08-26T22:44:41.354Z,20.77
2022-08-26T22:47:11.077Z,20.71
2022-08-26T22:49:40.821Z,20.73
2022-08-26T22:52:13.151Z,20.71
2022-08-26T22:54:42.922Z,20.79
2022-08-26T22:57:12.932Z,20.70
2022-08-26T22:59:42.996Z,20.66
2022-08-26T23:02:12.954Z,20.69
2022-08-26T23:04:43.392Z,20.64
2022-08-26T23:07:16.260Z,20.71
2022-08-26T23:09:46.354Z,20.81
2022-08-26T23:12:16.360Z,20.78
2022-08-26T23:14:46.427Z,20.80
2022-08-26T23:17:16.124Z,20.79
2022-08-26T23:19:45.796Z,20.48
2022-08-26T23:22:18.692Z,20.31
2022-08-26T23:24:48.440Z,20.07
2022-08-26T23:27:18.179Z,20.44
2022-08-26T23:29:48.663Z,20.46
2022-08-26T23:32:18.388Z,20.22
2022-08-26T23:34:58.974Z,20.19
2022-08-26T23:37:35.080Z,20.47
2022-08-26T23:40:07.402Z,20.46
2022-08-26T23:42:37.259Z,20.52
2022-08-26T23:45:07.596Z,20.53
2022-08-26T23:47:38.236Z,20.45
2022-08-26T23:50:09.172Z,20.48
2022-08-26T23:52:54.009Z,20.44
2022-08-26T23:55:23.744Z,20.45
2022-08-26T23:57:53.431Z,20.26
